sensor_id;sensor_type;location;lat;lon;timestamp;P1;durP1;ratioP1;P2;durP2;ratioP2
33074;SDS011;19433;51.292;6.868;2022-08-19T00:01:21;9.03;;;8.33;;
33074;SDS011;19433;51.292;6.868;2022-08-19T00:03:47;8.73;;;8.27;;
33074;SDS011;19433;51.292;6.868;2022-08-19T00:06:12;7.90;;;7.40;;
33074;SDS011;19433;51.292;6.868;2022-08-19T00:08:38;7.60;;;7.10;;
33074;SDS011;19433;51.292;6.868;2022-08-19T00:11:03;7.20;;;6.70;;
33074;SDS011;19433;51.292;6.868;2022-08-19T00:13:28;8.70;;;8.10;;
33074;SDS011;19433;51.292;6.868;2022-08-19T00:15:54;8.43;;;7.70;;
33074;SDS011;19433;51.292;6.868;2022-08-19T00:18:20;7.60;;;7.10;;
33074;SDS011;19433;51.292;6.868;2022-08-19T00:20:45;8.43;;;7.93;;
33074;SDS011;19433;51.292;6.868;2022-08-19T00:23:11;8.80;;;8.10;;
33074;SDS011;19433;51.292;6.868;2022-08-19T00:25:36;7.73;;;7.27;;
33074;SDS011;19433;51.292;6.868;2022-08-19T00:28:02;8.00;;;7.37;;
33074;SDS011;19433;51.292;6.868;2022-08-19T00:30:27;8.37;;;7.70;;
33074;SDS011;19433;51.292;6.868;2022-08-19T00:32:52;7.17;;;6.67;;
33074;SDS011;19433;51.292;6.868;2022-08-19T00:35:19;8.83;;;8.10;;
33074;SDS011;19433;51.292;6.868;2022-08-19T00:37:45;7.73;;;7.23;;
33074;SDS011;19433;51.292;6.868;2022-08-19T00:40:11;8.03;;;7.50;;
33074;SDS011;19433;51.292;6.868;2022-08-19T00:42:36;7.70;;;7.20;;
33074;SDS011;19433;51.292;6.868;2022-08-19T00:45:02;8.27;;;7.47;;
33074;SDS011;19433;51.292;6.868;2022-08-19T00:47:33;8.60;;;8.00;;
33074;SDS011;19433;51.292;6.868;2022-08-19T00:49:58;8.70;;;8.10;;
33074;SDS011;19433;51.292;6.868;2022-08-19T00:52:28;8.77;;;8.17;;
33074;SDS011;19433;51.292;6.868;2022-08-19T00:54:54;8.93;;;8.13;;
33074;SDS011;19433;51.292;6.868;2022-08-19T00:57:22;8.87;;;8.27;;
33074;SDS011;19433;51.292;6.868;2022-08-19T00:59:48;8.57;;;7.97;;
33074;SDS011;19433;51.292;6.868;2022-08-19T01:02:19;9.27;;;8.67;;
33074;SDS011;19433;51.292;6.868;2022-08-19T01:04:44;8.50;;;8.00;;
33074;SDS011;19433;51.292;6.868;2022-08-19T01:07:09;8.30;;;7.70;;
33074;SDS011;19433;51.292;6.868;2022-08-19T01:09:34;9.37;;;8.60;;
33074;SDS011;19433;51.292;6.868;2022-08-19T01:12:00;8.53;;;7.93;;
33074;SDS011;19433;51.292;6.868;2022-08-19T01:14:25;8.60;;;8.10;;
33074;SDS011;19433;51.292;6.868;2022-08-19T01:16:50;8.07;;;7.43;;
33074;SDS011;19433;51.292;6.868;2022-08-19T01:19:22;10.37;;;9.47;;
33074;SDS011;19433;51.292;6.868;2022-08-19T01:21:52;8.93;;;8.20;;
33074;SDS011;19433;51.292;6.868;2022-08-19T01:24:20;10.80;;;9.90;;
33074;SDS011;19433;51.292;6.868;2022-08-19T01:26:45;9.00;;;8.40;;
33074;SDS011;19433;51.292;6.868;2022-08-19T01:29:11;9.40;;;8.60;;
33074;SDS011;19433;51.292;6.868;2022-08-19T01:31:36;9.30;;;8.60;;
33074;SDS011;19433;51.292;6.868;2022-08-19T01:34:04;10.83;;;8.90;;
33074;SDS011;19433;51.292;6.868;2022-08-19T01:36:34;8.70;;;8.10;;
33074;SDS011;19433;51.292;6.868;2022-08-19T01:39:00;8.77;;;8.13;;
33074;SDS011;19433;51.292;6.868;2022-08-19T01:41:26;10.10;;;9.20;;
33074;SDS011;19433;51.292;6.868;2022-08-19T01:43:52;8.77;;;8.10;;
33074;SDS011;19433;51.292;6.868;2022-08-19T01:46:18;8.47;;;7.93;;
33074;SDS011;19433;51.292;6.868;2022-08-19T01:48:44;9.90;;;9.10;;
33074;SDS011;19433;51.292;6.868;2022-08-19T01:51:10;9.60;;;9.00;;
33074;SDS011;19433;51.292;6.868;2022-08-19T01:53:36;9.17;;;8.57;;
33074;SDS011;19433;51.292;6.868;2022-08-19T01:56:02;9.67;;;8.97;;
33074;SDS011;19433;51.292;6.868;2022-08-19T01:58:29;10.67;;;9.63;;
33074;SDS011;19433;51.292;6.868;2022-08-19T02:00:56;11.20;;;10.40;;
33074;SDS011;19433;51.292;6.868;2022-08-19T02:03:21;10.40;;;9.70;;
33074;SDS011;19433;51.292;6.868;2022-08-19T02:05:47;9.80;;;9.20;;
33074;SDS011;19433;51.292;6.868;2022-08-19T02:08:12;9.67;;;8.90;;
33074;SDS011;19433;51.292;6.868;2022-08-19T02:10:45;9.93;;;9.03;;
33074;SDS011;19433;51.292;6.868;2022-08-19T02:13:11;11.20;;;10.37;;
33074;SDS011;19433;51.292;6.868;2022-08-19T02:15:36;10.00;;;9.20;;
33074;SDS011;19433;51.292;6.868;2022-08-19T02:18:02;10.27;;;9.47;;
33074;SDS011;19433;51.292;6.868;2022-08-19T02:20:27;11.53;;;10.40;;
33074;SDS011;19433;51.292;6.868;2022-08-19T02:22:56;10.90;;;10.00;;
33074;SDS011;19433;51.292;6.868;2022-08-19T02:25:22;11.33;;;10.43;;
33074;SDS011;19433;51.292;6.868;2022-08-19T02:27:47;10.33;;;9.53;;
33074;SDS011;19433;51.292;6.868;2022-08-19T02:30:13;9.40;;;8.70;;
33074;SDS011;19433;51.292;6.868;2022-08-19T02:32:38;10.70;;;9.90;;
33074;SDS011;19433;51.292;6.868;2022-08-19T02:35:04;9.97;;;9.27;;
33074;SDS011;19433;51.292;6.868;2022-08-19T02:37:29;10.50;;;9.73;;
33074;SDS011;19433;51.292;6.868;2022-08-19T02:40:13;9.47;;;8.77;;
33074;SDS011;19433;51.292;6.868;2022-08-19T02:42:38;10.60;;;9.80;;
33074;SDS011;19433;51.292;6.868;2022-08-19T02:45:05;10.27;;;9.37;;
33074;SDS011;19433;51.292;6.868;2022-08-19T02:47:31;10.57;;;9.77;;
33074;SDS011;19433;51.292;6.868;2022-08-19T02:49:57;10.50;;;9.60;;
33074;SDS011;19433;51.292;6.868;2022-08-19T02:52:22;10.30;;;9.60;;
33074;SDS011;19433;51.292;6.868;2022-08-19T02:54:48;10.57;;;9.73;;
33074;SDS011;19433;51.292;6.868;2022-08-19T02:57:13;10.70;;;9.90;;
33074;SDS011;19433;51.292;6.868;2022-08-19T02:59:38;11.33;;;10.50;;
33074;SDS011;19433;51.292;6.868;2022-08-19T03:02:12;13.67;;;12.50;;
33074;SDS011;19433;51.292;6.868;2022-08-19T03:04:38;13.50;;;12.43;;
33074;SDS011;19433;51.292;6.868;2022-08-19T03:07:03;12.10;;;11.10;;
33074;SDS011;19433;51.292;6.868;2022-08-19T03:09:28;11.70;;;10.90;;
33074;SDS011;19433;51.292;6.868;2022-08-19T03:11:54;11.30;;;10.40;;
33074;SDS011;19433;51.292;6.868;2022-08-19T03:14:20;11.20;;;10.30;;
33074;SDS011;19433;51.292;6.868;2022-08-19T03:16:46;11.60;;;10.60;;
33074;SDS011;19433;51.292;6.868;2022-08-19T03:19:12;10.70;;;9.83;;
33074;SDS011;19433;51.292;6.868;2022-08-19T03:21:37;11.43;;;9.63;;
33074;SDS011;19433;51.292;6.868;2022-08-19T03:24:04;13.00;;;12.00;;
33074;SDS011;19433;51.292;6.868;2022-08-19T03:26:29;14.00;;;12.60;;
33074;SDS011;19433;51.292;6.868;2022-08-19T03:28:55;13.47;;;12.27;;
33074;SDS011;19433;51.292;6.868;2022-08-19T03:31:21;13.27;;;12.07;;
33074;SDS011;19433;51.292;6.868;2022-08-19T03:33:47;12.10;;;11.20;;
33074;SDS011;19433;51.292;6.868;2022-08-19T03:36:15;10.60;;;9.80;;
33074;SDS011;19433;51.292;6.868;2022-08-19T03:38:42;12.93;;;12.03;;
33074;SDS011;19433;51.292;6.868;2022-08-19T03:41:12;10.90;;;10.10;;
33074;SDS011;19433;51.292;6.868;2022-08-19T03:43:38;11.60;;;10.70;;
33074;SDS011;19433;51.292;6.868;2022-08-19T03:46:04;11.03;;;10.23;;
33074;SDS011;19433;51.292;6.868;2022-08-19T03:48:30;12.00;;;11.20;;
33074;SDS011;19433;51.292;6.868;2022-08-19T03:50:55;12.77;;;11.80;;
33074;SDS011;19433;51.292;6.868;2022-08-19T03:53:21;13.17;;;12.00;;
33074;SDS011;19433;51.292;6.868;2022-08-19T03:55:46;13.77;;;12.43;;
33074;SDS011;19433;51.292;6.868;2022-08-19T03:58:11;15.10;;;13.63;;
33074;SDS011;19433;51.292;6.868;2022-08-19T04:00:36;14.53;;;13.40;;
33074;SDS011;19433;51.292;6.868;2022-08-19T04:03:02;15.33;;;14.03;;
33074;SDS011;19433;51.292;6.868;2022-08-19T04:05:30;13.70;;;12.70;;
33074;SDS011;19433;51.292;6.868;2022-08-19T04:07:55;14.30;;;13.13;;
33074;SDS011;19433;51.292;6.868;2022-08-19T04:10:23;14.30;;;13.10;;
33074;SDS011;19433;51.292;6.868;2022-08-19T04:12:49;15.33;;;13.90;;
33074;SDS011;19433;51.292;6.868;2022-08-19T04:15:14;18.27;;;16.80;;
33074;SDS011;19433;51.292;6.868;2022-08-19T04:17:41;19.67;;;18.20;;
33074;SDS011;19433;51.292;6.868;2022-08-19T04:20:06;20.83;;;19.00;;
33074;SDS011;19433;51.292;6.868;2022-08-19T04:22:31;23.80;;;21.70;;
33074;SDS011;19433;51.292;6.868;2022-08-19T04:24:56;20.97;;;19.27;;
33074;SDS011;19433;51.292;6.868;2022-08-19T04:27:23;19.90;;;18.20;;
33074;SDS011;19433;51.292;6.868;2022-08-19T04:29:48;21.67;;;19.67;;
33074;SDS011;19433;51.292;6.868;2022-08-19T04:32:13;21.23;;;19.43;;
33074;SDS011;19433;51.292;6.868;2022-08-19T04:34:40;19.80;;;18.00;;
33074;SDS011;19433;51.292;6.868;2022-08-19T04:37:06;20.60;;;18.77;;
33074;SDS011;19433;51.292;6.868;2022-08-19T04:39:36;21.00;;;18.97;;
33074;SDS011;19433;51.292;6.868;2022-08-19T04:42:20;23.93;;;21.57;;
33074;SDS011;19433;51.292;6.868;2022-08-19T04:45:12;22.93;;;20.97;;
33074;SDS011;19433;51.292;6.868;2022-08-19T04:47:38;22.53;;;20.73;;
33074;SDS011;19433;51.292;6.868;2022-08-19T04:50:04;21.40;;;19.70;;
33074;SDS011;19433;51.292;6.868;2022-08-19T04:52:29;25.57;;;23.27;;
33074;SDS011;19433;51.292;6.868;2022-08-19T04:54:56;24.03;;;22.00;;
33074;SDS011;19433;51.292;6.868;2022-08-19T04:57:21;28.37;;;25.77;;
33074;SDS011;19433;51.292;6.868;2022-08-19T04:59:46;29.03;;;26.33;;
33074;SDS011;19433;51.292;6.868;2022-08-19T05:02:11;28.47;;;25.80;;
33074;SDS011;19433;51.292;6.868;2022-08-19T05:04:37;27.90;;;25.30;;
33074;SDS011;19433;51.292;6.868;2022-08-19T05:07:04;28.70;;;26.00;;
33074;SDS011;19433;51.292;6.868;2022-08-19T05:09:29;31.63;;;28.83;;
33074;SDS011;19433;51.292;6.868;2022-08-19T05:14:49;32.00;;;29.07;;
33074;SDS011;19433;51.292;6.868;2022-08-19T05:17:14;32.10;;;29.17;;
33074;SDS011;19433;51.292;6.868;2022-08-19T05:19:46;32.67;;;29.60;;
33074;SDS011;19433;51.292;6.868;2022-08-19T05:22:29;27.50;;;25.10;;
33074;SDS011;19433;51.292;6.868;2022-08-19T05:25:07;33.53;;;30.50;;
33074;SDS011;19433;51.292;6.868;2022-08-19T05:27:33;32.20;;;29.23;;
33074;SDS011;19433;51.292;6.868;2022-08-19T05:29:58;30.10;;;27.67;;
33074;SDS011;19433;51.292;6.868;2022-08-19T05:32:30;29.10;;;26.50;;
33074;SDS011;19433;51.292;6.868;2022-08-19T05:34:55;29.00;;;26.27;;
33074;SDS011;19433;51.292;6.868;2022-08-19T05:37:20;27.07;;;24.47;;
33074;SDS011;19433;51.292;6.868;2022-08-19T05:39:47;27.93;;;25.60;;
33074;SDS011;19433;51.292;6.868;2022-08-19T05:42:12;31.70;;;29.00;;
33074;SDS011;19433;51.292;6.868;2022-08-19T05:44:41;31.27;;;28.30;;
33074;SDS011;19433;51.292;6.868;2022-08-19T05:47:08;29.70;;;27.00;;
33074;SDS011;19433;51.292;6.868;2022-08-19T05:49:34;27.10;;;24.80;;
33074;SDS011;19433;51.292;6.868;2022-08-19T05:52:01;25.47;;;23.40;;
33074;SDS011;19433;51.292;6.868;2022-08-19T05:54:26;25.07;;;22.60;;
33074;SDS011;19433;51.292;6.868;2022-08-19T05:56:52;26.60;;;24.30;;
33074;SDS011;19433;51.292;6.868;2022-08-19T05:59:18;25.13;;;22.73;;
33074;SDS011;19433;51.292;6.868;2022-08-19T06:01:45;23.17;;;21.30;;
33074;SDS011;19433;51.292;6.868;2022-08-19T06:04:11;23.67;;;21.50;;
33074;SDS011;19433;51.292;6.868;2022-08-19T06:06:38;21.70;;;19.90;;
33074;SDS011;19433;51.292;6.868;2022-08-19T06:09:04;22.07;;;20.37;;
33074;SDS011;19433;51.292;6.868;2022-08-19T06:14:05;30.70;;;28.00;;
33074;SDS011;19433;51.292;6.868;2022-08-19T06:16:33;27.33;;;25.17;;
33074;SDS011;19433;51.292;6.868;2022-08-19T06:19:00;30.03;;;27.53;;
33074;SDS011;19433;51.292;6.868;2022-08-19T06:21:26;30.50;;;27.90;;
33074;SDS011;19433;51.292;6.868;2022-08-19T06:23:52;28.50;;;25.87;;
33074;SDS011;19433;51.292;6.868;2022-08-19T06:26:18;32.43;;;29.80;;
33074;SDS011;19433;51.292;6.868;2022-08-19T06:28:44;38.23;;;34.73;;
33074;SDS011;19433;51.292;6.868;2022-08-19T06:31:14;38.73;;;35.53;;
33074;SDS011;19433;51.292;6.868;2022-08-19T06:33:41;49.60;;;45.47;;
33074;SDS011;19433;51.292;6.868;2022-08-19T06:36:06;49.23;;;45.40;;
33074;SDS011;19433;51.292;6.868;2022-08-19T06:38:32;47.67;;;43.87;;
33074;SDS011;19433;51.292;6.868;2022-08-19T06:41:04;49.90;;;45.60;;
33074;SDS011;19433;51.292;6.868;2022-08-19T06:43:36;49.27;;;45.13;;
33074;SDS011;19433;51.292;6.868;2022-08-19T06:46:01;50.30;;;46.30;;
33074;SDS011;19433;51.292;6.868;2022-08-19T06:48:29;51.87;;;47.50;;
33074;SDS011;19433;51.292;6.868;2022-08-19T06:50:55;53.30;;;49.00;;
33074;SDS011;19433;51.292;6.868;2022-08-19T06:53:20;52.50;;;48.00;;
33074;SDS011;19433;51.292;6.868;2022-08-19T06:55:45;47.87;;;44.03;;
33074;SDS011;19433;51.292;6.868;2022-08-19T06:58:11;46.80;;;43.07;;
33074;SDS011;19433;51.292;6.868;2022-08-19T07:00:37;49.30;;;45.13;;
33074;SDS011;19433;51.292;6.868;2022-08-19T07:03:02;45.20;;;41.60;;
33074;SDS011;19433;51.292;6.868;2022-08-19T07:05:27;47.53;;;43.50;;
33074;SDS011;19433;51.292;6.868;2022-08-19T07:07:53;45.37;;;41.80;;
33074;SDS011;19433;51.292;6.868;2022-08-19T07:10:18;41.83;;;38.50;;
33074;SDS011;19433;51.292;6.868;2022-08-19T07:12:44;41.30;;;37.90;;
33074;SDS011;19433;51.292;6.868;2022-08-19T07:15:09;40.90;;;37.47;;
33074;SDS011;19433;51.292;6.868;2022-08-19T07:17:36;38.53;;;35.57;;
33074;SDS011;19433;51.292;6.868;2022-08-19T07:20:03;36.90;;;33.87;;
33074;SDS011;19433;51.292;6.868;2022-08-19T07:22:29;38.40;;;35.50;;
33074;SDS011;19433;51.292;6.868;2022-08-19T07:24:54;37.57;;;34.70;;
33074;SDS011;19433;51.292;6.868;2022-08-19T07:27:19;34.50;;;31.73;;
33074;SDS011;19433;51.292;6.868;2022-08-19T07:29:45;34.47;;;31.87;;
33074;SDS011;19433;51.292;6.868;2022-08-19T07:32:10;32.67;;;30.27;;
33074;SDS011;19433;51.292;6.868;2022-08-19T07:34:36;33.23;;;30.73;;
33074;SDS011;19433;51.292;6.868;2022-08-19T07:37:02;33.30;;;30.50;;
33074;SDS011;19433;51.292;6.868;2022-08-19T07:39:30;31.03;;;28.33;;
33074;SDS011;19433;51.292;6.868;2022-08-19T07:41:56;32.80;;;30.40;;
33074;SDS011;19433;51.292;6.868;2022-08-19T07:44:22;29.90;;;27.80;;
33074;SDS011;19433;51.292;6.868;2022-08-19T07:46:51;30.23;;;27.83;;
33074;SDS011;19433;51.292;6.868;2022-08-19T07:49:17;31.00;;;28.60;;
33074;SDS011;19433;51.292;6.868;2022-08-19T07:51:44;32.47;;;30.00;;
33074;SDS011;19433;51.292;6.868;2022-08-19T07:54:10;30.37;;;28.13;;
33074;SDS011;19433;51.292;6.868;2022-08-19T07:56:36;28.17;;;25.90;;
33074;SDS011;19433;51.292;6.868;2022-08-19T07:59:07;27.87;;;25.70;;
33074;SDS011;19433;51.292;6.868;2022-08-19T08:01:33;25.87;;;23.97;;
33074;SDS011;19433;51.292;6.868;2022-08-19T08:03:59;25.30;;;23.37;;
33074;SDS011;19433;51.292;6.868;2022-08-19T08:06:43;25.83;;;23.67;;
33074;SDS011;19433;51.292;6.868;2022-08-19T08:09:35;21.80;;;20.03;;
33074;SDS011;19433;51.292;6.868;2022-08-19T08:12:05;21.87;;;20.33;;
33074;SDS011;19433;51.292;6.868;2022-08-19T08:14:36;21.30;;;19.80;;
33074;SDS011;19433;51.292;6.868;2022-08-19T08:17:02;21.33;;;19.63;;
33074;SDS011;19433;51.292;6.868;2022-08-19T08:19:27;22.33;;;20.40;;
33074;SDS011;19433;51.292;6.868;2022-08-19T08:21:53;22.43;;;20.53;;
33074;SDS011;19433;51.292;6.868;2022-08-19T08:24:19;20.87;;;19.20;;
33074;SDS011;19433;51.292;6.868;2022-08-19T08:26:45;21.93;;;20.37;;
33074;SDS011;19433;51.292;6.868;2022-08-19T08:29:11;20.70;;;19.20;;
33074;SDS011;19433;51.292;6.868;2022-08-19T08:31:38;22.17;;;20.50;;
33074;SDS011;19433;51.292;6.868;2022-08-19T08:34:03;22.10;;;20.47;;
33074;SDS011;19433;51.292;6.868;2022-08-19T08:36:28;22.93;;;21.33;;
33074;SDS011;19433;51.292;6.868;2022-08-19T08:38:54;25.20;;;23.20;;
33074;SDS011;19433;51.292;6.868;2022-08-19T08:44:02;23.93;;;22.20;;
33074;SDS011;19433;51.292;6.868;2022-08-19T08:46:30;27.70;;;25.60;;
33074;SDS011;19433;51.292;6.868;2022-08-19T08:49:04;30.87;;;28.33;;
33074;SDS011;19433;51.292;6.868;2022-08-19T08:51:37;28.53;;;26.13;;
33074;SDS011;19433;51.292;6.868;2022-08-19T08:54:07;29.97;;;27.57;;
33074;SDS011;19433;51.292;6.868;2022-08-19T08:56:32;29.53;;;27.33;;
33074;SDS011;19433;51.292;6.868;2022-08-19T08:59:00;28.47;;;26.47;;
33074;SDS011;19433;51.292;6.868;2022-08-19T09:01:26;31.37;;;28.63;;
33074;SDS011;19433;51.292;6.868;2022-08-19T09:03:52;28.80;;;26.70;;
33074;SDS011;19433;51.292;6.868;2022-08-19T09:11:35;27.07;;;24.97;;
33074;SDS011;19433;51.292;6.868;2022-08-19T09:14:10;25.80;;;24.00;;
33074;SDS011;19433;51.292;6.868;2022-08-19T09:16:39;25.60;;;23.80;;
33074;SDS011;19433;51.292;6.868;2022-08-19T09:19:06;21.07;;;19.63;;
33074;SDS011;19433;51.292;6.868;2022-08-19T09:21:32;18.20;;;16.80;;
33074;SDS011;19433;51.292;6.868;2022-08-19T09:23:58;18.27;;;16.83;;
33074;SDS011;19433;51.292;6.868;2022-08-19T09:26:24;17.23;;;16.03;;
33074;SDS011;19433;51.292;6.868;2022-08-19T09:28:50;17.93;;;16.80;;
33074;SDS011;19433;51.292;6.868;2022-08-19T09:31:18;19.27;;;17.90;;
33074;SDS011;19433;51.292;6.868;2022-08-19T09:33:43;17.17;;;15.87;;
33074;SDS011;19433;51.292;6.868;2022-08-19T09:36:09;16.33;;;15.13;;
33074;SDS011;19433;51.292;6.868;2022-08-19T09:38:35;18.07;;;16.57;;
33074;SDS011;19433;51.292;6.868;2022-08-19T09:41:08;18.30;;;17.20;;
33074;SDS011;19433;51.292;6.868;2022-08-19T09:43:34;22.87;;;21.17;;
33074;SDS011;19433;51.292;6.868;2022-08-19T09:46:02;18.70;;;17.40;;
33074;SDS011;19433;51.292;6.868;2022-08-19T09:48:27;18.10;;;16.80;;
33074;SDS011;19433;51.292;6.868;2022-08-19T09:50:52;19.00;;;17.60;;
33074;SDS011;19433;51.292;6.868;2022-08-19T09:53:18;18.37;;;17.17;;
33074;SDS011;19433;51.292;6.868;2022-08-19T09:55:43;18.40;;;17.10;;
33074;SDS011;19433;51.292;6.868;2022-08-19T09:58:09;14.97;;;13.97;;
33074;SDS011;19433;51.292;6.868;2022-08-19T10:00:36;16.70;;;15.50;;
33074;SDS011;19433;51.292;6.868;2022-08-19T10:03:02;20.83;;;19.33;;
33074;SDS011;19433;51.292;6.868;2022-08-19T10:05:27;22.03;;;20.00;;
33074;SDS011;19433;51.292;6.868;2022-08-19T10:08:11;21.47;;;19.87;;
33074;SDS011;19433;51.292;6.868;2022-08-19T10:10:36;24.43;;;22.53;;
33074;SDS011;19433;51.292;6.868;2022-08-19T10:13:02;25.33;;;23.53;;
33074;SDS011;19433;51.292;6.868;2022-08-19T10:15:27;23.30;;;21.57;;
33074;SDS011;19433;51.292;6.868;2022-08-19T10:17:52;24.70;;;23.00;;
33074;SDS011;19433;51.292;6.868;2022-08-19T10:20:17;21.77;;;20.27;;
33074;SDS011;19433;51.292;6.868;2022-08-19T10:22:43;19.40;;;18.10;;
33074;SDS011;19433;51.292;6.868;2022-08-19T10:25:08;19.80;;;18.33;;
33074;SDS011;19433;51.292;6.868;2022-08-19T10:27:33;18.07;;;16.80;;
33074;SDS011;19433;51.292;6.868;2022-08-19T10:29:59;18.87;;;17.57;;
33074;SDS011;19433;51.292;6.868;2022-08-19T10:32:24;19.77;;;18.50;;
33074;SDS011;19433;51.292;6.868;2022-08-19T10:34:50;15.60;;;14.67;;
33074;SDS011;19433;51.292;6.868;2022-08-19T10:37:17;16.70;;;15.27;;
33074;SDS011;19433;51.292;6.868;2022-08-19T10:39:42;18.77;;;17.47;;
33074;SDS011;19433;51.292;6.868;2022-08-19T10:42:10;19.70;;;18.50;;
33074;SDS011;19433;51.292;6.868;2022-08-19T10:44:36;15.33;;;14.27;;
33074;SDS011;19433;51.292;6.868;2022-08-19T10:47:03;17.60;;;16.30;;
33074;SDS011;19433;51.292;6.868;2022-08-19T10:49:28;18.67;;;17.47;;
33074;SDS011;19433;51.292;6.868;2022-08-19T10:51:54;17.27;;;16.10;;
33074;SDS011;19433;51.292;6.868;2022-08-19T10:54:37;16.63;;;15.47;;
33074;SDS011;19433;51.292;6.868;2022-08-19T10:57:38;15.50;;;14.60;;
33074;SDS011;19433;51.292;6.868;2022-08-19T11:00:04;13.33;;;12.50;;
33074;SDS011;19433;51.292;6.868;2022-08-19T11:02:30;12.13;;;11.40;;
33074;SDS011;19433;51.292;6.868;2022-08-19T11:04:55;13.80;;;12.80;;
33074;SDS011;19433;51.292;6.868;2022-08-19T11:07:20;12.60;;;11.70;;
33074;SDS011;19433;51.292;6.868;2022-08-19T11:09:46;13.20;;;12.30;;
33074;SDS011;19433;51.292;6.868;2022-08-19T11:12:11;12.10;;;11.30;;
33074;SDS011;19433;51.292;6.868;2022-08-19T11:14:37;9.67;;;8.97;;
33074;SDS011;19433;51.292;6.868;2022-08-19T11:17:03;8.30;;;7.80;;
33074;SDS011;19433;51.292;6.868;2022-08-19T11:19:30;9.97;;;9.00;;
33074;SDS011;19433;51.292;6.868;2022-08-19T11:21:56;9.60;;;8.70;;
33074;SDS011;19433;51.292;6.868;2022-08-19T11:24:22;9.10;;;8.50;;
33074;SDS011;19433;51.292;6.868;2022-08-19T11:26:49;7.53;;;7.13;;
33074;SDS011;19433;51.292;6.868;2022-08-19T11:29:15;7.60;;;7.10;;
33074;SDS011;19433;51.292;6.868;2022-08-19T11:31:41;7.67;;;7.07;;
33074;SDS011;19433;51.292;6.868;2022-08-19T11:34:08;7.67;;;6.97;;
33074;SDS011;19433;51.292;6.868;2022-08-19T11:36:40;7.77;;;7.27;;
33074;SDS011;19433;51.292;6.868;2022-08-19T11:39:07;8.43;;;7.83;;
33074;SDS011;19433;51.292;6.868;2022-08-19T11:41:35;6.27;;;5.87;;
33074;SDS011;19433;51.292;6.868;2022-08-19T11:44:00;4.83;;;4.60;;
33074;SDS011;19433;51.292;6.868;2022-08-19T11:46:27;6.20;;;5.70;;
33074;SDS011;19433;51.292;6.868;2022-08-19T11:48:54;5.53;;;5.07;;
33074;SDS011;19433;51.292;6.868;2022-08-19T11:51:20;6.97;;;6.37;;
33074;SDS011;19433;51.292;6.868;2022-08-19T11:53:46;6.57;;;6.17;;
33074;SDS011;19433;51.292;6.868;2022-08-19T11:56:12;5.67;;;5.13;;
33074;SDS011;19433;51.292;6.868;2022-08-19T11:58:38;7.23;;;6.73;;
33074;SDS011;19433;51.292;6.868;2022-08-19T12:01:22;5.67;;;5.37;;
33074;SDS011;19433;51.292;6.868;2022-08-19T12:03:49;6.07;;;5.67;;
33074;SDS011;19433;51.292;6.868;2022-08-19T12:06:16;6.73;;;6.13;;
33074;SDS011;19433;51.292;6.868;2022-08-19T12:08:42;7.37;;;6.77;;
33074;SDS011;19433;51.292;6.868;2022-08-19T12:11:08;8.27;;;7.60;;
33074;SDS011;19433;51.292;6.868;2022-08-19T12:13:34;8.50;;;7.90;;
33074;SDS011;19433;51.292;6.868;2022-08-19T12:15:59;7.50;;;7.00;;
33074;SDS011;19433;51.292;6.868;2022-08-19T12:18:25;7.03;;;6.53;;
33074;SDS011;19433;51.292;6.868;2022-08-19T12:20:50;7.30;;;6.77;;
33074;SDS011;19433;51.292;6.868;2022-08-19T12:23:16;6.37;;;5.93;;
33074;SDS011;19433;51.292;6.868;2022-08-19T12:25:46;6.53;;;5.93;;
33074;SDS011;19433;51.292;6.868;2022-08-19T12:28:17;6.27;;;5.67;;
33074;SDS011;19433;51.292;6.868;2022-08-19T12:30:43;6.07;;;5.67;;
33074;SDS011;19433;51.292;6.868;2022-08-19T12:33:08;7.40;;;6.90;;
33074;SDS011;19433;51.292;6.868;2022-08-19T12:35:33;6.20;;;5.80;;
33074;SDS011;19433;51.292;6.868;2022-08-19T12:37:58;5.43;;;5.13;;
33074;SDS011;19433;51.292;6.868;2022-08-19T12:40:24;5.40;;;4.90;;
33074;SDS011;19433;51.292;6.868;2022-08-19T12:42:50;4.70;;;4.40;;
33074;SDS011;19433;51.292;6.868;2022-08-19T12:45:16;5.80;;;5.30;;
33074;SDS011;19433;51.292;6.868;2022-08-19T12:47:41;5.00;;;4.60;;
33074;SDS011;19433;51.292;6.868;2022-08-19T12:50:06;5.17;;;4.67;;
33074;SDS011;19433;51.292;6.868;2022-08-19T12:52:33;5.10;;;4.70;;
33074;SDS011;19433;51.292;6.868;2022-08-19T12:55:00;6.53;;;5.03;;
33074;SDS011;19433;51.292;6.868;2022-08-19T12:57:26;4.50;;;4.27;;
33074;SDS011;19433;51.292;6.868;2022-08-19T12:59:52;5.57;;;5.10;;
33074;SDS011;19433;51.292;6.868;2022-08-19T13:02:20;5.10;;;4.60;;
33074;SDS011;19433;51.292;6.868;2022-08-19T13:04:46;5.73;;;5.43;;
33074;SDS011;19433;51.292;6.868;2022-08-19T13:07:11;5.97;;;5.40;;
33074;SDS011;19433;51.292;6.868;2022-08-19T13:09:36;5.80;;;5.50;;
33074;SDS011;19433;51.292;6.868;2022-08-19T13:12:02;6.63;;;6.03;;
33074;SDS011;19433;51.292;6.868;2022-08-19T13:14:28;4.80;;;4.23;;
33074;SDS011;19433;51.292;6.868;2022-08-19T13:16:56;5.97;;;5.43;;
33074;SDS011;19433;51.292;6.868;2022-08-19T13:19:22;4.83;;;4.53;;
33074;SDS011;19433;51.292;6.868;2022-08-19T13:21:51;5.43;;;4.90;;
33074;SDS011;19433;51.292;6.868;2022-08-19T13:24:17;5.63;;;5.23;;
33074;SDS011;19433;51.292;6.868;2022-08-19T13:26:42;8.83;;;5.73;;
33074;SDS011;19433;51.292;6.868;2022-08-19T13:29:07;5.30;;;4.93;;
33074;SDS011;19433;51.292;6.868;2022-08-19T13:31:51;5.17;;;4.77;;
33074;SDS011;19433;51.292;6.868;2022-08-19T13:34:35;5.33;;;4.40;;
33074;SDS011;19433;51.292;6.868;2022-08-19T13:37:02;5.43;;;4.50;;
33074;SDS011;19433;51.292;6.868;2022-08-19T13:39:28;4.13;;;3.83;;
33074;SDS011;19433;51.292;6.868;2022-08-19T13:41:54;4.53;;;3.33;;
33074;SDS011;19433;51.292;6.868;2022-08-19T13:44:19;4.80;;;3.90;;
33074;SDS011;19433;51.292;6.868;2022-08-19T13:46:45;3.80;;;3.50;;
33074;SDS011;19433;51.292;6.868;2022-08-19T13:49:11;4.30;;;3.67;;
33074;SDS011;19433;51.292;6.868;2022-08-19T13:51:38;4.60;;;3.60;;
33074;SDS011;19433;51.292;6.868;2022-08-19T13:54:05;3.80;;;3.40;;
33074;SDS011;19433;51.292;6.868;2022-08-19T13:56:30;5.33;;;4.73;;
33074;SDS011;19433;51.292;6.868;2022-08-19T13:58:55;3.63;;;3.30;;
33074;SDS011;19433;51.292;6.868;2022-08-19T14:01:21;3.40;;;3.20;;
33074;SDS011;19433;51.292;6.868;2022-08-19T14:03:47;4.27;;;3.80;;
33074;SDS011;19433;51.292;6.868;2022-08-19T14:06:13;4.07;;;3.77;;
33074;SDS011;19433;51.292;6.868;2022-08-19T14:08:38;6.63;;;3.50;;
33074;SDS011;19433;51.292;6.868;2022-08-19T14:11:06;5.70;;;3.80;;
33074;SDS011;19433;51.292;6.868;2022-08-19T14:13:31;4.03;;;3.73;;
33074;SDS011;19433;51.292;6.868;2022-08-19T14:15:58;3.13;;;2.93;;
33074;SDS011;19433;51.292;6.868;2022-08-19T14:18:23;3.63;;;3.28;;
33074;SDS011;19433;51.292;6.868;2022-08-19T14:20:49;4.17;;;3.87;;
33074;SDS011;19433;51.292;6.868;2022-08-19T14:23:15;4.27;;;3.97;;
33074;SDS011;19433;51.292;6.868;2022-08-19T14:25:40;5.00;;;4.30;;
33074;SDS011;19433;51.292;6.868;2022-08-19T14:28:05;3.80;;;3.50;;
33074;SDS011;19433;51.292;6.868;2022-08-19T14:30:33;4.47;;;4.03;;
33074;SDS011;19433;51.292;6.868;2022-08-19T14:32:59;6.37;;;3.87;;
33074;SDS011;19433;51.292;6.868;2022-08-19T14:35:26;4.23;;;3.97;;
33074;SDS011;19433;51.292;6.868;2022-08-19T14:37:53;4.93;;;3.17;;
33074;SDS011;19433;51.292;6.868;2022-08-19T14:40:24;3.73;;;3.43;;
33074;SDS011;19433;51.292;6.868;2022-08-19T14:42:58;4.00;;;3.80;;
33074;SDS011;19433;51.292;6.868;2022-08-19T14:45:29;3.70;;;3.40;;